sensor_id;sensor_type;location;lat;lon;timestamp;temperature;humidity
69731;SHT31;56996;48.138;11.538;2023-04-24T00:00:57;12.19;75.34
69731;SHT31;56996;48.138;11.538;2023-04-24T00:03:24;12.19;75.49
69731;SHT31;56996;48.138;11.538;2023-04-24T00:05:50;12.18;75.33
69731;SHT31;56996;48.138;11.538;2023-04-24T00:08:16;12.15;75.37
69731;SHT31;56996;48.138;11.538;2023-04-24T00:10:43;12.15;75.78
69731;SHT31;56996;48.138;11.538;2023-04-24T00:13:09;12.15;75.61
69731;SHT31;56996;48.138;11.538;2023-04-24T00:15:35;12.14;75.34
69731;SHT31;56996;48.138;11.538;2023-04-24T00:18:01;12.12;75.62
69731;SHT31;56996;48.138;11.538;2023-04-24T00:20:28;12.13;75.51
69731;SHT31;56996;48.138;11.538;2023-04-24T00:22:55;12.13;75.39
69731;SHT31;56996;48.138;11.538;2023-04-24T00:25:21;12.13;75.54
69731;SHT31;56996;48.138;11.538;2023-04-24T00:27:47;12.12;75.40
69731;SHT31;56996;48.138;11.538;2023-04-24T00:30:13;12.12;75.09
69731;SHT31;56996;48.138;11.538;2023-04-24T00:32:39;12.07;75.19
69731;SHT31;56996;48.138;11.538;2023-04-24T00:35:05;12.05;75.34
69731;SHT31;56996;48.138;11.538;2023-04-24T00:37:32;12.05;75.32
69731;SHT31;56996;48.138;11.538;2023-04-24T00:39:58;12.03;75.29
69731;SHT31;56996;48.138;11.538;2023-04-24T00:42:24;12.03;75.24
69731;SHT31;56996;48.138;11.538;2023-04-24T00:44:51;12.00;75.08
69731;SHT31;56996;48.138;11.538;2023-04-24T00:47:22;11.98;74.91
69731;SHT31;56996;48.138;11.538;2023-04-24T00:49:48;11.96;75.09
69731;SHT31;56996;48.138;11.538;2023-04-24T00:52:14;11.96;74.55
69731;SHT31;56996;48.138;11.538;2023-04-24T00:54:46;11.90;74.40
69731;SHT31;56996;48.138;11.538;2023-04-24T00:57:13;11.85;74.39
69731;SHT31;56996;48.138;11.538;2023-04-24T00:59:41;11.80;74.53
69731;SHT31;56996;48.138;11.538;2023-04-24T01:02:09;11.77;74.47
69731;SHT31;56996;48.138;11.538;2023-04-24T01:04:36;11.72;74.51
69731;SHT31;56996;48.138;11.538;2023-04-24T01:07:03;11.72;74.79
69731;SHT31;56996;48.138;11.538;2023-04-24T01:09:39;11.69;74.80
69731;SHT31;56996;48.138;11.538;2023-04-24T01:12:10;11.69;74.82
69731;SHT31;56996;48.138;11.538;2023-04-24T01:14:36;11.65;74.71
69731;SHT31;56996;48.138;11.538;2023-04-24T01:17:03;11.64;74.94
69731;SHT31;56996;48.138;11.538;2023-04-24T01:19:29;11.63;74.77
69731;SHT31;56996;48.138;11.538;2023-04-24T01:21:57;11.64;74.78
69731;SHT31;56996;48.138;11.538;2023-04-24T01:24:28;11.61;74.74
69731;SHT31;56996;48.138;11.538;2023-04-24T01:26:55;11.60;74.37
69731;SHT31;56996;48.138;11.538;2023-04-24T01:29:20;11.61;74.58
69731;SHT31;56996;48.138;11.538;2023-04-24T01:31:46;11.61;74.20
69731;SHT31;56996;48.138;11.538;2023-04-24T01:34:13;11.60;74.40
69731;SHT31;56996;48.138;11.538;2023-04-24T01:36:39;11.60;74.31
69731;SHT31;56996;48.138;11.538;2023-04-24T01:39:08;11.59;74.36
69731;SHT31;56996;48.138;11.538;2023-04-24T01:41:35;11.61;74.28
69731;SHT31;56996;48.138;11.538;2023-04-24T01:44:01;11.60;73.87
69731;SHT31;56996;48.138;11.538;2023-04-24T01:46:28;11.54;73.81
69731;SHT31;56996;48.138;11.538;2023-04-24T01:48:56;11.53;73.87
69731;SHT31;56996;48.138;11.538;2023-04-24T01:51:25;11.54;73.85
69731;SHT31;56996;48.138;11.538;2023-04-24T01:53:52;11.49;73.60
69731;SHT31;56996;48.138;11.538;2023-04-24T01:56:22;11.44;73.43
69731;SHT31;56996;48.138;11.538;2023-04-24T01:58:49;11.46;73.62
69731;SHT31;56996;48.138;11.538;2023-04-24T02:01:18;11.45;73.35
69731;SHT31;56996;48.138;11.538;2023-04-24T02:03:46;11.44;73.69
69731;SHT31;56996;48.138;11.538;2023-04-24T02:06:13;11.44;73.66
69731;SHT31;56996;48.138;11.538;2023-04-24T02:08:38;11.40;73.58
69731;SHT31;56996;48.138;11.538;2023-04-24T02:11:05;11.39;73.72
69731;SHT31;56996;48.138;11.538;2023-04-24T02:13:31;11.41;73.65
69731;SHT31;56996;48.138;11.538;2023-04-24T02:16:00;11.40;73.30
69731;SHT31;56996;48.138;11.538;2023-04-24T02:18:28;11.38;73.24
69731;SHT31;56996;48.138;11.538;2023-04-24T02:20:56;11.32;73.41
69731;SHT31;56996;48.138;11.538;2023-04-24T02:23:22;11.32;73.57
69731;SHT31;56996;48.138;11.538;2023-04-24T02:25:48;11.33;73.41
69731;SHT31;56996;48.138;11.538;2023-04-24T02:28:16;11.23;73.66
69731;SHT31;56996;48.138;11.538;2023-04-24T02:30:42;11.21;73.86
69731;SHT31;56996;48.138;11.538;2023-04-24T02:33:08;11.22;73.41
69731;SHT31;56996;48.138;11.538;2023-04-24T02:35:33;11.19;73.26
69731;SHT31;56996;48.138;11.538;2023-04-24T02:38:00;11.14;73.14
69731;SHT31;56996;48.138;11.538;2023-04-24T02:40:26;11.13;73.16
69731;SHT31;56996;48.138;11.538;2023-04-24T02:42:52;11.13;73.33
69731;SHT31;56996;48.138;11.538;2023-04-24T02:45:18;11.14;73.56
69731;SHT31;56996;48.138;11.538;2023-04-24T02:47:44;11.10;73.75
69731;SHT31;56996;48.138;11.538;2023-04-24T02:50:10;11.12;74.08
69731;SHT31;56996;48.138;11.538;2023-04-24T02:52:36;11.16;74.47
69731;SHT31;56996;48.138;11.538;2023-04-24T02:55:02;11.17;74.34
69731;SHT31;56996;48.138;11.538;2023-04-24T02:57:29;11.17;73.97
69731;SHT31;56996;48.138;11.538;2023-04-24T02:59:55;11.15;73.84
69731;SHT31;56996;48.138;11.538;2023-04-24T03:02:21;11.11;73.86
69731;SHT31;56996;48.138;11.538;2023-04-24T03:04:47;11.10;74.02
69731;SHT31;56996;48.138;11.538;2023-04-24T03:07:14;11.11;74.11
69731;SHT31;56996;48.138;11.538;2023-04-24T03:09:40;11.10;74.03
69731;SHT31;56996;48.138;11.538;2023-04-24T03:12:07;11.07;74.19
69731;SHT31;56996;48.138;11.538;2023-04-24T03:14:33;11.03;74.72
69731;SHT31;56996;48.138;11.538;2023-04-24T03:17:00;11.03;74.84
69731;SHT31;56996;48.138;11.538;2023-04-24T03:19:26;10.99;74.79
69731;SHT31;56996;48.138;11.538;2023-04-24T03:21:57;10.96;74.93
69731;SHT31;56996;48.138;11.538;2023-04-24T03:24:23;10.94;75.16
69731;SHT31;56996;48.138;11.538;2023-04-24T03:26:49;10.90;75.33
69731;SHT31;56996;48.138;11.538;2023-04-24T03:29:41;10.91;75.56
69731;SHT31;56996;48.138;11.538;2023-04-24T03:32:09;10.91;75.62
69731;SHT31;56996;48.138;11.538;2023-04-24T03:34:35;10.93;75.49
69731;SHT31;56996;48.138;11.538;2023-04-24T03:37:01;10.90;75.52
69731;SHT31;56996;48.138;11.538;2023-04-24T03:39:28;10.91;75.61
69731;SHT31;56996;48.138;11.538;2023-04-24T03:41:55;10.91;75.98
69731;SHT31;56996;48.138;11.538;2023-04-24T03:44:26;10.95;76.35
69731;SHT31;56996;48.138;11.538;2023-04-24T03:46:52;10.96;76.50
69731;SHT31;56996;48.138;11.538;2023-04-24T03:49:19;10.95;76.43
69731;SHT31;56996;48.138;11.538;2023-04-24T03:51:46;10.95;76.69
69731;SHT31;56996;48.138;11.538;2023-04-24T03:54:19;10.95;76.78
69731;SHT31;56996;48.138;11.538;2023-04-24T03:56:45;10.94;76.85
69731;SHT31;56996;48.138;11.538;2023-04-24T03:59:11;10.96;76.71
69731;SHT31;56996;48.138;11.538;2023-04-24T04:01:39;10.97;76.74
69731;SHT31;56996;48.138;11.538;2023-04-24T04:04:13;10.97;76.89
69731;SHT31;56996;48.138;11.538;2023-04-24T04:06:39;11.00;76.79
69731;SHT31;56996;48.138;11.538;2023-04-24T04:09:06;11.02;76.61
69731;SHT31;56996;48.138;11.538;2023-04-24T04:11:34;11.01;76.47
69731;SHT31;56996;48.138;11.538;2023-04-24T04:14:01;11.01;76.57
69731;SHT31;56996;48.138;11.538;2023-04-24T04:16:27;11.00;76.54
69731;SHT31;56996;48.138;11.538;2023-04-24T04:18:58;11.02;76.47
69731;SHT31;56996;48.138;11.538;2023-04-24T04:21:24;11.03;76.48
69731;SHT31;56996;48.138;11.538;2023-04-24T04:23:57;11.02;76.56
69731;SHT31;56996;48.138;11.538;2023-04-24T04:26:29;11.02;76.54
69731;SHT31;56996;48.138;11.538;2023-04-24T04:29:03;11.02;76.65
69731;SHT31;56996;48.138;11.538;2023-04-24T04:31:29;11.00;76.52
69731;SHT31;56996;48.138;11.538;2023-04-24T04:33:58;11.01;76.50
69731;SHT31;56996;48.138;11.538;2023-04-24T04:36:24;11.00;76.56
69731;SHT31;56996;48.138;11.538;2023-04-24T04:38:57;11.00;76.51
69731;SHT31;56996;48.138;11.538;2023-04-24T04:41:50;11.01;76.49
69731;SHT31;56996;48.138;11.538;2023-04-24T04:44:17;11.00;76.61
69731;SHT31;56996;48.138;11.538;2023-04-24T04:46:43;10.99;76.59
69731;SHT31;56996;48.138;11.538;2023-04-24T04:49:31;10.96;76.57
69731;SHT31;56996;48.138;11.538;2023-04-24T04:51:58;10.94;76.61
69731;SHT31;56996;48.138;11.538;2023-04-24T04:54:25;10.95;76.73
69731;SHT31;56996;48.138;11.538;2023-04-24T04:56:51;10.99;76.69
69731;SHT31;56996;48.138;11.538;2023-04-24T04:59:17;10.99;76.48
69731;SHT31;56996;48.138;11.538;2023-04-24T05:01:45;10.97;76.32
69731;SHT31;56996;48.138;11.538;2023-04-24T05:04:11;10.93;76.37
69731;SHT31;56996;48.138;11.538;2023-04-24T05:06:37;10.96;76.23
69731;SHT31;56996;48.138;11.538;2023-04-24T05:09:04;11.00;76.20
69731;SHT31;56996;48.138;11.538;2023-04-24T05:11:39;11.03;76.02
69731;SHT31;56996;48.138;11.538;2023-04-24T05:14:05;11.02;75.51
69731;SHT31;56996;48.138;11.538;2023-04-24T05:16:34;10.99;75.62
69731;SHT31;56996;48.138;11.538;2023-04-24T05:19:00;11.02;75.52
69731;SHT31;56996;48.138;11.538;2023-04-24T05:21:30;11.01;75.53
69731;SHT31;56996;48.138;11.538;2023-04-24T05:23:56;11.03;75.60
69731;SHT31;56996;48.138;11.538;2023-04-24T05:26:37;11.06;75.28
69731;SHT31;56996;48.138;11.538;2023-04-24T05:29:03;11.06;75.27
69731;SHT31;56996;48.138;11.538;2023-04-24T05:31:29;11.09;75.24
69731;SHT31;56996;48.138;11.538;2023-04-24T05:33:56;11.12;75.12
69731;SHT31;56996;48.138;11.538;2023-04-24T05:36:22;11.16;75.00
69731;SHT31;56996;48.138;11.538;2023-04-24T05:38:48;11.18;74.71
69731;SHT31;56996;48.138;11.538;2023-04-24T05:41:14;11.16;74.91
69731;SHT31;56996;48.138;11.538;2023-04-24T05:43:40;11.16;74.81
69731;SHT31;56996;48.138;11.538;2023-04-24T05:46:06;11.22;74.84
69731;SHT31;56996;48.138;11.538;2023-04-24T05:48:32;11.24;74.31
69731;SHT31;56996;48.138;11.538;2023-04-24T05:51:00;11.27;74.49
69731;SHT31;56996;48.138;11.538;2023-04-24T05:53:26;11.28;74.46
69731;SHT31;56996;48.138;11.538;2023-04-24T05:55:52;11.31;74.46
69731;SHT31;56996;48.138;11.538;2023-04-24T05:58:18;11.35;74.35
69731;SHT31;56996;48.138;11.538;2023-04-24T06:00:45;11.37;74.13
69731;SHT31;56996;48.138;11.538;2023-04-24T06:03:12;11.41;74.29
69731;SHT31;56996;48.138;11.538;2023-04-24T06:05:39;11.48;74.07
69731;SHT31;56996;48.138;11.538;2023-04-24T06:08:05;11.56;73.95
69731;SHT31;56996;48.138;11.538;2023-04-24T06:10:35;11.66;73.68
69731;SHT31;56996;48.138;11.538;2023-04-24T06:13:01;11.76;73.18
69731;SHT31;56996;48.138;11.538;2023-04-24T06:15:29;11.78;72.82
69731;SHT31;56996;48.138;11.538;2023-04-24T06:18:06;11.89;73.18
69731;SHT31;56996;48.138;11.538;2023-04-24T06:20:32;12.02;72.57
69731;SHT31;56996;48.138;11.538;2023-04-24T06:23:00;12.11;72.26
69731;SHT31;56996;48.138;11.538;2023-04-24T06:25:26;12.13;71.91
69731;SHT31;56996;48.138;11.538;2023-04-24T06:27:52;12.14;71.83
69731;SHT31;56996;48.138;11.538;2023-04-24T06:30:18;12.19;71.84
69731;SHT31;56996;48.138;11.538;2023-04-24T06:32:44;12.18;71.47
69731;SHT31;56996;48.138;11.538;2023-04-24T06:35:10;12.16;71.24
69731;SHT31;56996;48.138;11.538;2023-04-24T06:37:41;12.20;71.00
69731;SHT31;56996;48.138;11.538;2023-04-24T06:40:08;12.22;70.54
69731;SHT31;56996;48.138;11.538;2023-04-24T06:42:35;12.26;70.13
69731;SHT31;56996;48.138;11.538;2023-04-24T06:45:02;12.34;69.95
69731;SHT31;56996;48.138;11.538;2023-04-24T06:47:29;12.43;69.76
69731;SHT31;56996;48.138;11.538;2023-04-24T06:49:55;12.53;69.36
69731;SHT31;56996;48.138;11.538;2023-04-24T06:52:21;12.64;69.15
69731;SHT31;56996;48.138;11.538;2023-04-24T06:54:47;12.85;68.98
69731;SHT31;56996;48.138;11.538;2023-04-24T06:57:13;13.00;67.86
69731;SHT31;56996;48.138;11.538;2023-04-24T06:59:41;13.15;67.81
69731;SHT31;56996;48.138;11.538;2023-04-24T07:02:08;13.43;67.05
69731;SHT31;56996;48.138;11.538;2023-04-24T07:04:34;13.71;66.39
69731;SHT31;56996;48.138;11.538;2023-04-24T07:07:00;13.88;65.45
69731;SHT31;56996;48.138;11.538;2023-04-24T07:09:27;14.01;65.29
69731;SHT31;56996;48.138;11.538;2023-04-24T07:11:54;14.08;64.48
69731;SHT31;56996;48.138;11.538;2023-04-24T07:14:22;14.10;64.44
69731;SHT31;56996;48.138;11.538;2023-04-24T07:16:48;14.13;64.13
69731;SHT31;56996;48.138;11.538;2023-04-24T07:19:14;14.09;63.66
69731;SHT31;56996;48.138;11.538;2023-04-24T07:21:40;13.98;63.64
69731;SHT31;56996;48.138;11.538;2023-04-24T07:24:06;13.95;63.86
69731;SHT31;56996;48.138;11.538;2023-04-24T07:26:36;13.97;63.82
69731;SHT31;56996;48.138;11.538;2023-04-24T07:29:04;14.00;63.43
69731;SHT31;56996;48.138;11.538;2023-04-24T07:31:30;13.99;62.67
69731;SHT31;56996;48.138;11.538;2023-04-24T07:33:57;14.03;62.83
69731;SHT31;56996;48.138;11.538;2023-04-24T07:36:25;14.13;62.40
69731;SHT31;56996;48.138;11.538;2023-04-24T07:38:52;14.13;62.45
69731;SHT31;56996;48.138;11.538;2023-04-24T07:41:18;14.02;62.30
69731;SHT31;56996;48.138;11.538;2023-04-24T07:43:44;13.93;62.67
69731;SHT31;56996;48.138;11.538;2023-04-24T07:46:11;13.88;62.29
69731;SHT31;56996;48.138;11.538;2023-04-24T07:48:37;13.73;62.38
69731;SHT31;56996;48.138;11.538;2023-04-24T07:51:03;13.64;62.74
69731;SHT31;56996;48.138;11.538;2023-04-24T07:53:29;13.59;62.44
69731;SHT31;56996;48.138;11.538;2023-04-24T07:55:55;13.60;62.68
69731;SHT31;56996;48.138;11.538;2023-04-24T07:58:22;13.62;62.55
69731;SHT31;56996;48.138;11.538;2023-04-24T08:00:48;13.62;62.44
69731;SHT31;56996;48.138;11.538;2023-04-24T08:03:14;13.69;62.50
69731;SHT31;56996;48.138;11.538;2023-04-24T08:05:40;13.81;62.14
69731;SHT31;56996;48.138;11.538;2023-04-24T08:08:08;13.86;61.94
69731;SHT31;56996;48.138;11.538;2023-04-24T08:10:34;13.89;61.81
69731;SHT31;56996;48.138;11.538;2023-04-24T08:13:00;13.99;61.57
69731;SHT31;56996;48.138;11.538;2023-04-24T08:15:27;14.00;61.41
69731;SHT31;56996;48.138;11.538;2023-04-24T08:17:53;13.93;61.48
69731;SHT31;56996;48.138;11.538;2023-04-24T08:20:19;13.88;61.90
69731;SHT31;56996;48.138;11.538;2023-04-24T08:22:45;13.85;61.87
69731;SHT31;56996;48.138;11.538;2023-04-24T08:25:12;13.77;61.91
69731;SHT31;56996;48.138;11.538;2023-04-24T08:27:38;13.68;62.19
69731;SHT31;56996;48.138;11.538;2023-04-24T08:30:04;13.62;63.58
69731;SHT31;56996;48.138;11.538;2023-04-24T08:32:32;13.59;64.39
69731;SHT31;56996;48.138;11.538;2023-04-24T08:34:59;13.58;65.22
69731;SHT31;56996;48.138;11.538;2023-04-24T08:37:26;13.39;66.25
69731;SHT31;56996;48.138;11.538;2023-04-24T08:39:53;13.19;67.62
69731;SHT31;56996;48.138;11.538;2023-04-24T08:42:19;13.06;68.63
69731;SHT31;56996;48.138;11.538;2023-04-24T08:44:48;12.96;67.14
69731;SHT31;56996;48.138;11.538;2023-04-24T08:47:15;12.99;67.24
69731;SHT31;56996;48.138;11.538;2023-04-24T08:49:41;13.20;65.58
69731;SHT31;56996;48.138;11.538;2023-04-24T08:52:09;13.40;64.59
69731;SHT31;56996;48.138;11.538;2023-04-24T08:54:35;13.56;63.68
69731;SHT31;56996;48.138;11.538;2023-04-24T08:57:02;13.60;62.13
69731;SHT31;56996;48.138;11.538;2023-04-24T08:59:31;13.59;62.24
69731;SHT31;56996;48.138;11.538;2023-04-24T09:01:57;13.55;61.55
69731;SHT31;56996;48.138;11.538;2023-04-24T09:04:24;13.46;60.74
69731;SHT31;56996;48.138;11.538;2023-04-24T09:06:52;13.33;60.06
69731;SHT31;56996;48.138;11.538;2023-04-24T09:09:22;13.28;60.04
69731;SHT31;56996;48.138;11.538;2023-04-24T09:11:50;13.19;60.58
69731;SHT31;56996;48.138;11.538;2023-04-24T09:14:19;13.19;60.54
69731;SHT31;56996;48.138;11.538;2023-04-24T09:16:46;13.23;60.19
69731;SHT31;56996;48.138;11.538;2023-04-24T09:19:13;13.26;60.41
69731;SHT31;56996;48.138;11.538;2023-04-24T09:21:38;13.41;61.07
69731;SHT31;56996;48.138;11.538;2023-04-24T09:24:07;13.48;60.67
69731;SHT31;56996;48.138;11.538;2023-04-24T09:26:43;13.50;59.90
69731;SHT31;56996;48.138;11.538;2023-04-24T09:29:14;13.54;60.03
69731;SHT31;56996;48.138;11.538;2023-04-24T09:31:42;13.66;59.78
69731;SHT31;56996;48.138;11.538;2023-04-24T09:34:09;13.74;59.43
69731;SHT31;56996;48.138;11.538;2023-04-24T09:39:07;13.98;58.31
69731;SHT31;56996;48.138;11.538;2023-04-24T09:41:44;14.09;57.60
69731;SHT31;56996;48.138;11.538;2023-04-24T09:46:49;14.32;56.45
69731;SHT31;56996;48.138;11.538;2023-04-24T09:49:22;14.52;56.64
69731;SHT31;56996;48.138;11.538;2023-04-24T09:51:50;14.70;55.82
69731;SHT31;56996;48.138;11.538;2023-04-24T09:54:18;14.76;55.46
69731;SHT31;56996;48.138;11.538;2023-04-24T09:56:47;14.83;55.96
69731;SHT31;56996;48.138;11.538;2023-04-24T09:59:16;14.91;56.13
69731;SHT31;56996;48.138;11.538;2023-04-24T10:01:44;15.06;55.75
69731;SHT31;56996;48.138;11.538;2023-04-24T10:06:52;15.39;55.01
69731;SHT31;56996;48.138;11.538;2023-04-24T10:09:22;15.48;54.90
69731;SHT31;56996;48.138;11.538;2023-04-24T10:11:51;15.65;55.07
69731;SHT31;56996;48.138;11.538;2023-04-24T10:14:21;15.89;54.46
69731;SHT31;56996;48.138;11.538;2023-04-24T10:16:49;15.94;53.71
69731;SHT31;56996;48.138;11.538;2023-04-24T10:19:19;15.89;53.50
69731;SHT31;56996;48.138;11.538;2023-04-24T10:21:45;15.68;52.62
69731;SHT31;56996;48.138;11.538;2023-04-24T10:24:16;15.52;53.14
69731;SHT31;56996;48.138;11.538;2023-04-24T10:26:46;15.52;53.26
69731;SHT31;56996;48.138;11.538;2023-04-24T10:29:14;15.64;52.81
69731;SHT31;56996;48.138;11.538;2023-04-24T10:31:43;15.74;52.68
69731;SHT31;56996;48.138;11.538;2023-04-24T10:34:13;16.03;52.64
69731;SHT31;56996;48.138;11.538;2023-04-24T10:36:43;16.24;51.85
69731;SHT31;56996;48.138;11.538;2023-04-24T10:39:15;16.20;51.64
69731;SHT31;56996;48.138;11.538;2023-04-24T10:41:42;16.13;52.33
69731;SHT31;56996;48.138;11.538;2023-04-24T10:44:09;16.08;52.27
69731;SHT31;56996;48.138;11.538;2023-04-24T10:46:39;15.94;52.92
69731;SHT31;56996;48.138;11.538;2023-04-24T10:49:09;15.85;53.03
69731;SHT31;56996;48.138;11.538;2023-04-24T10:51:51;15.63;54.36
69731;SHT31;56996;48.138;11.538;2023-04-24T10:54:22;15.17;55.38
69731;SHT31;56996;48.138;11.538;2023-04-24T10:56:50;14.75;56.52
69731;SHT31;56996;48.138;11.538;2023-04-24T10:59:26;14.31;57.76
69731;SHT31;56996;48.138;11.538;2023-04-24T11:02:00;13.92;58.39
69731;SHT31;56996;48.138;11.538;2023-04-24T11:04:32;13.74;59.24
69731;SHT31;56996;48.138;11.538;2023-04-24T11:06:59;13.71;60.02
69731;SHT31;56996;48.138;11.538;2023-04-24T11:09:26;13.82;59.87
69731;SHT31;56996;48.138;11.538;2023-04-24T11:17:29;14.56;59.36
69731;SHT31;56996;48.138;11.538;2023-04-24T11:20:06;14.94;58.67
69731;SHT31;56996;48.138;11.538;2023-04-24T11:22:54;15.23;57.88
69731;SHT31;56996;48.138;11.538;2023-04-24T11:25:21;15.33;57.42
69731;SHT31;56996;48.138;11.538;2023-04-24T11:27:48;15.46;57.67
69731;SHT31;56996;48.138;11.538;2023-04-24T11:30:19;15.54;56.86
69731;SHT31;56996;48.138;11.538;2023-04-24T11:32:50;15.67;56.49
69731;SHT31;56996;48.138;11.538;2023-04-24T11:35:18;15.70;55.70
69731;SHT31;56996;48.138;11.538;2023-04-24T11:37:51;15.83;56.85
69731;SHT31;56996;48.138;11.538;2023-04-24T11:40:22;15.82;55.48
69731;SHT31;56996;48.138;11.538;2023-04-24T11:42:49;15.68;55.69
69731;SHT31;56996;48.138;11.538;2023-04-24T11:45:22;15.41;55.17
69731;SHT31;56996;48.138;11.538;2023-04-24T11:47:50;15.37;55.00
69731;SHT31;56996;48.138;11.538;2023-04-24T11:50:17;15.21;54.94
69731;SHT31;56996;48.138;11.538;2023-04-24T11:52:47;15.09;55.35
69731;SHT31;56996;48.138;11.538;2023-04-24T12:02:46;15.52;53.24
69731;SHT31;56996;48.138;11.538;2023-04-24T12:05:32;15.51;53.24
69731;SHT31;56996;48.138;11.538;2023-04-24T12:08:00;15.65;52.89
69731;SHT31;56996;48.138;11.538;2023-04-24T12:10:27;15.77;52.16
69731;SHT31;56996;48.138;11.538;2023-04-24T12:12:56;15.85;51.79
69731;SHT31;56996;48.138;11.538;2023-04-24T12:15:23;15.88;51.91
69731;SHT31;56996;48.138;11.538;2023-04-24T12:17:51;15.83;51.26
69731;SHT31;56996;48.138;11.538;2023-04-24T12:20:23;15.72;51.75
69731;SHT31;56996;48.138;11.538;2023-04-24T12:22:56;15.75;52.09
69731;SHT31;56996;48.138;11.538;2023-04-24T12:25:25;15.83;51.53
69731;SHT31;56996;48.138;11.538;2023-04-24T12:30:33;15.86;49.45
69731;SHT31;56996;48.138;11.538;2023-04-24T12:33:02;15.89;49.42
69731;SHT31;56996;48.138;11.538;2023-04-24T12:35:29;16.00;48.73
69731;SHT31;56996;48.138;11.538;2023-04-24T12:38:05;16.00;46.64
69731;SHT31;56996;48.138;11.538;2023-04-24T12:40:36;15.99;46.57
69731;SHT31;56996;48.138;11.538;2023-04-24T12:43:12;16.08;45.60
69731;SHT31;56996;48.138;11.538;2023-04-24T12:45:43;16.16;46.37
69731;SHT31;56996;48.138;11.538;2023-04-24T12:48:10;16.41;46.36
69731;SHT31;56996;48.138;11.538;2023-04-24T12:50:37;16.63;44.49
69731;SHT31;56996;48.138;11.538;2023-04-24T12:53:04;16.63;43.44
69731;SHT31;56996;48.138;11.538;2023-04-24T12:55:30;16.67;44.48
69731;SHT31;56996;48.138;11.538;2023-04-24T12:57:56;16.91;44.36
69731;SHT31;56996;48.138;11.538;2023-04-24T13:00:22;17.07;42.67
69731;SHT31;56996;48.138;11.538;2023-04-24T13:02:48;17.15;42.63
69731;SHT31;56996;48.138;11.538;2023-04-24T13:05:14;17.25;42.53
69731;SHT31;56996;48.138;11.538;2023-04-24T13:07:41;17.35;43.72
69731;SHT31;56996;48.138;11.538;2023-04-24T13:10:07;17.18;43.84
69731;SHT31;56996;48.138;11.538;2023-04-24T13:12:34;16.95;44.96
69731;SHT31;56996;48.138;11.538;2023-04-24T13:15:00;16.83;44.43
69731;SHT31;56996;48.138;11.538;2023-04-24T13:17:27;16.48;44.37
69731;SHT31;56996;48.138;11.538;2023-04-24T13:19:54;16.07;45.31
69731;SHT31;56996;48.138;11.538;2023-04-24T13:22:20;15.98;45.44
69731;SHT31;56996;48.138;11.538;2023-04-24T13:24:46;15.83;44.84
69731;SHT31;56996;48.138;11.538;2023-04-24T13:27:16;15.73;45.13
69731;SHT31;56996;48.138;11.538;2023-04-24T13:29:43;15.79;45.29
69731;SHT31;56996;48.138;11.538;2023-04-24T13:32:09;16.05;45.22
69731;SHT31;56996;48.138;11.538;2023-04-24T13:34:35;16.31;44.37
69731;SHT31;56996;48.138;11.538;2023-04-24T13:37:02;16.50;43.86
69731;SHT31;56996;48.138;11.538;2023-04-24T13:39:29;16.60;43.83
69731;SHT31;56996;48.138;11.538;2023-04-24T13:41:55;16.71;43.77
69731;SHT31;56996;48.138;11.538;2023-04-24T13:44:21;16.76;43.77
69731;SHT31;56996;48.138;11.538;2023-04-24T13:46:48;16.75;43.62
69731;SHT31;56996;48.138;11.538;2023-04-24T13:49:19;16.74;44.02
69731;SHT31;56996;48.138;11.538;2023-04-24T13:51:47;16.76;43.92
69731;SHT31;56996;48.138;11.538;2023-04-24T13:54:13;16.78;43.75
69731;SHT31;56996;48.138;11.538;2023-04-24T13:56:41;16.76;42.99
69731;SHT31;56996;48.138;11.538;2023-04-24T13:59:08;16.57;41.29
69731;SHT31;56996;48.138;11.538;2023-04-24T14:01:34;16.49;41.66
69731;SHT31;56996;48.138;11.538;2023-04-24T14:04:01;16.50;40.77
69731;SHT31;56996;48.138;11.538;2023-04-24T14:06:27;16.50;40.14
69731;SHT31;56996;48.138;11.538;2023-04-24T14:08:53;16.63;39.99
69731;SHT31;56996;48.138;11.538;2023-04-24T14:11:19;16.82;39.86
69731;SHT31;56996;48.138;11.538;2023-04-24T14:13:45;16.84;39.67
69731;SHT31;56996;48.138;11.538;2023-04-24T14:16:12;16.80;41.11
69731;SHT31;56996;48.138;11.538;2023-04-24T14:18:38;16.79;41.60
69731;SHT31;56996;48.138;11.538;2023-04-24T14:21:04;16.67;41.56
69731;SHT31;56996;48.138;11.538;2023-04-24T14:23:31;16.64;42.08
69731;SHT31;56996;48.138;11.538;2023-04-24T14:25:57;16.84;42.07
69731;SHT31;56996;48.138;11.538;2023-04-24T14:28:24;16.87;41.01
69731;SHT31;56996;48.138;11.538;2023-04-24T14:30:51;16.81;40.22
69731;SHT31;56996;48.138;11.538;2023-04-24T14:33:18;16.91;40.13
69731;SHT31;56996;48.138;11.538;2023-04-24T14:35:44;16.98;40.25
69731;SHT31;56996;48.138;11.538;2023-04-24T14:38:11;17.00;40.18
69731;SHT31;56996;48.138;11.538;2023-04-24T14:40:37;16.79;38.94
69731;SHT31;56996;48.138;11.538;2023-04-24T14:43:23;16.41;39.56
69731;SHT31;56996;48.138;11.538;2023-04-24T14:45:49;16.31;40.40
69731;SHT31;56996;48.138;11.538;2023-04-24T14:48:15;16.32;40.66
69731;SHT31;56996;48.138;11.538;2023-04-24T14:50:43;16.32;40.33
69731;SHT31;56996;48.138;11.538;2023-04-24T14:53:09;16.33;40.57
69731;SHT31;56996;48.138;11.538;2023-04-24T14:55:35;16.31;40.01
69731;SHT31;56996;48.138;11.538;2023-04-24T14:58:02;16.33;39.81
69731;SHT31;56996;48.138;11.538;2023-04-24T15:00:28;16.29;39.06
69731;SHT31;56996;48.138;11.538;2023-04-24T15:02:54;16.24;39.27
69731;SHT31;56996;48.138;11.538;2023-04-24T15:05:21;16.24;39.23
69731;SHT31;56996;48.138;11.538;2023-04-24T15:07:48;16.20;39.10
69731;SHT31;56996;48.138;11.538;2023-04-24T15:10:14;16.22;39.37
69731;SHT31;56996;48.138;11.538;2023-04-24T15:12:40;16.19;38.91
69731;SHT31;56996;48.138;11.538;2023-04-24T15:15:06;15.98;38.92
69731;SHT31;56996;48.138;11.538;2023-04-24T15:17:33;15.92;39.23
69731;SHT31;56996;48.138;11.538;2023-04-24T15:20:00;16.02;39.04
69731;SHT31;56996;48.138;11.538;2023-04-24T15:22:26;16.02;38.11
69731;SHT31;56996;48.138;11.538;2023-04-24T15:24:52;16.12;38.58
69731;SHT31;56996;48.138;11.538;2023-04-24T15:27:18;16.30;38.08
69731;SHT31;56996;48.138;11.538;2023-04-24T15:29:44;16.39;37.46
69731;SHT31;56996;48.138;11.538;2023-04-24T15:32:10;16.45;36.90
69731;SHT31;56996;48.138;11.538;2023-04-24T15:34:36;16.40;36.78
69731;SHT31;56996;48.138;11.538;2023-04-24T15:37:02;16.27;36.75
69731;SHT31;56996;48.138;11.538;2023-04-24T15:39:28;16.28;37.33
69731;SHT31;56996;48.138;11.538;2023-04-24T15:41:54;16.34;37.17